Hauptseite
METAR-TAF:

METAR-TAF

Flughäfen :

Hagåtña, Guam, Vereinigte Staaten

Flughafen Antonio B. Won Pat

Breite: 13-29N, Länge: 144-48E, Höhe: 91 m

Beobachtung

Neuester Wetterbericht von vor 1 Stunde und 10 Minuten, um 10:54 UTC
Wind 4 kt aus Ost/Nordost
Temperatur 29°C
Luftfeuchtigkeit 84%
Luftdruck 1014 hPa
Sichtweite: 16.1 km
Himmel klar

METAR: PGUM 221054Z 07004KT 10SM CLR 29/26 A2993 RMK AO2 SLP126 T02890261 $

Zeit: 22:04 (12:04 UTC)

Prognose

Neuester Wetterbericht von vor 44 Minuten, um 11:20 UTC
Gültige Prognose vom 22 um 12 UTC bis 23 um 18 UTC
Wind 10 kt aus Nordost
Sichtweite: 10 km
Leicht bewölkt in der Höhe von 1800 ft
Aufgelockert bewölkt in der Höhe von 12000 ft
Schauer in der Nähe

TAF: PGUM 221120Z 2212/2318 05010KT P6SM VCSH FEW018 SCT120

Wetterbeobachtungen und Prognosen von mehr als 4000 Flughäfen (METAR und TAF Bericht).

Die verfügbaren Stationen werden durch gelbe und rote Markierungen auf der Karte dargestellt.

Führen Sie die Maus auf sie, um den Namen der Station zu sehen.

Darauf klicken, um die Beobachtung von Wetterbeobachtungen und Prognosen zu sehen.

Um die Karte zu ändern : klicken Sie auf den grünen Tasten mit einem schwarzen Kreuz Zum Vergrößern, auf den grünen Button mit einem Gedankenstrich zu verkleinern, oder auf die grünen Pfeile für benachbarte Karten.


METAR-TAF: